Fangxian, China
Current Conditions -  °F | °C
As of 4:00 PM on Sunday 21 Dec 2014 (Local Time) from ZLXY Reporting Station
Clear Clear  
Wind Chill: 41°   Ceiling: Unl
Heat Index: 41°   Visibility: 6mi
Dew Point: -2°   Wind: 2mph
Humidity: 16%   Direction: NA
Pressure: 30.48"   Gusts: NA
Location:  32.03°N, 110.77°E
Report Text: ZLXY 210800Z VRB01MPS CAVOK 05/M19 Q1032 NOSIG
Loading
Personal Weather Stations






























Interactive Weather Map New forecast layout! Learn more

10-Day Weather Forecast

Advertisements
Track Severe Weather on mobile